Time;durP1;ratioP1;P1;durP2;ratioP2;P2;SDS_P1;SDS_P2;PMS_P1;PMS_P2;Temp;Humidity;BMP_temperature;BMP_pressure;BME280_temperature;BME280_humidity;BME280_pressure;Samples;Min_cycle;Max_cycle;Signal;HPM_P1;HPM_P2
2023/05/05 00:00:54;;;;;;;7.68;2.20;;;14.00;71.90;;;;;;5012730;28;20512;-70
2023/05/05 00:03:24;;;;;;;7.82;2.78;;;14.00;72.10;;;;;;5012685;28;20030;-70
2023/05/05 00:05:53;;;;;;;5.28;2.22;;;14.10;72.50;;;;;;5012499;28;20041;-71
2023/05/05 00:08:19;;;;;;;3.33;2.15;;;14.10;72.90;;;;;;5012540;28;20026;-72
2023/05/05 00:10:46;;;;;;;16.88;2.70;;;14.00;72.60;;;;;;4995421;28;20330;-69
2023/05/05 00:13:12;;;;;;;7.55;2.42;;;14.10;72.10;;;;;;5012294;28;20091;-70
2023/05/05 00:15:43;;;;;;;9.05;2.92;;;14.10;72.50;;;;;;5012169;28;20065;-71
2023/05/05 00:18:10;;;;;;;9.15;2.47;;;14.00;72.80;;;;;;5012258;28;20064;-70
2023/05/05 00:20:36;;;;;;;8.57;2.53;;;13.90;72.90;;;;;;4999453;28;20060;-70
2023/05/05 00:23:02;;;;;;;8.82;3.00;;;13.90;73.20;;;;;;5032402;28;20055;-71
2023/05/05 00:25:28;;;;;;;5.65;2.30;;;13.90;73.40;;;;;;5032229;28;20128;-69
2023/05/05 00:27:54;;;;;;;6.85;2.35;;;13.80;73.70;;;;;;5032004;28;20038;-70
2023/05/05 00:30:20;;;;;;;7.93;2.97;;;13.80;73.90;;;;;;5031868;28;20041;-70
2023/05/05 00:32:49;;;;;;;7.38;2.95;;;13.70;73.70;;;;;;5014425;28;20501;-70
2023/05/05 00:35:17;;;;;;;3.78;2.50;;;13.80;73.60;;;;;;5014260;28;20057;-70
2023/05/05 00:37:43;;;;;;;3.70;2.20;;;13.80;74.00;;;;;;5032574;28;20489;-71
2023/05/05 00:40:10;;;;;;;10.60;2.40;;;13.70;74.20;;;;;;5031882;28;20536;-70
2023/05/05 00:42:43;;;;;;;5.95;2.63;;;13.60;74.50;;;;;;5014150;28;20029;-70
2023/05/05 00:45:13;;;;;;;12.05;2.95;;;13.60;74.60;;;;;;5014032;28;20037;-70
2023/05/05 00:47:42;;;;;;;9.85;2.60;;;13.50;75.30;;;;;;5031609;28;20041;-70
2023/05/05 00:50:08;;;;;;;;;;;13.50;75.40;;;;;;5032099;28;20097;-71
2023/05/05 00:52:35;;;;;;;13.40;3.72;;;13.40;75.30;;;;;;5031963;28;20354;-70
2023/05/05 00:55:03;;;;;;;9.10;3.00;;;13.40;75.60;;;;;;5013903;28;20045;-70
2023/05/05 00:57:29;;;;;;;5.07;2.83;;;13.40;76.00;;;;;;5014051;28;20053;-70
2023/05/05 00:59:56;;;;;;;7.70;2.83;;;13.30;75.80;;;;;;5013888;28;20037;-71
2023/05/05 01:02:21;;;;;;;8.15;2.90;;;13.20;76.50;;;;;;5013851;28;20040;-70
2023/05/05 01:04:47;;;;;;;5.28;2.55;;;13.20;76.40;;;;;;5014222;28;20061;-69
2023/05/05 01:07:25;;;;;;;7.07;2.85;;;13.30;76.50;;;;;;5031509;28;20430;-70
2023/05/05 01:10:07;;;;;;;8.48;2.58;;;13.30;76.30;;;;;;5031329;28;20478;-71
2023/05/05 01:12:56;;;;;;;9.18;3.25;;;13.20;76.70;;;;;;5031486;28;20391;-70
2023/05/05 01:15:29;;;;;;;6.43;3.05;;;13.20;77.10;;;;;;5031188;28;20049;-70
2023/05/05 01:18:08;;;;;;;8.80;2.95;;;13.20;76.90;;;;;;5031226;28;20045;-70
2023/05/05 01:20:52;;;;;;;7.13;2.60;;;13.20;77.30;;;;;;5031230;28;20041;-71
2023/05/05 01:23:57;;;;;;;8.07;2.72;;;13.20;77.10;;;;;;5031127;28;20044;-71
2023/05/05 01:26:38;;;;;;;10.48;3.60;;;13.20;76.90;;;;;;5008130;28;20071;-71
2023/05/05 01:29:21;;;;;;;9.23;3.25;;;13.10;77.20;;;;;;5030871;28;20053;-72
2023/05/05 01:31:50;;;;;;;6.80;2.80;;;13.20;77.60;;;;;;5031391;28;20068;-72
2023/05/05 01:34:25;;;;;;;8.60;3.35;;;13.10;78.00;;;;;;5030742;28;20363;-71
2023/05/05 01:36:57;;;;;;;8.88;3.20;;;13.10;78.20;;;;;;5030516;28;20037;-71
2023/05/05 01:39:27;;;;;;;10.52;2.97;;;13.00;78.20;;;;;;5013574;28;20029;-72
2023/05/05 01:41:57;;;;;;;8.65;3.17;;;13.00;78.30;;;;;;5031129;28;20053;-70
2023/05/05 01:44:24;;;;;;;6.25;3.00;;;13.00;78.80;;;;;;5030906;28;20084;-71
2023/05/05 01:46:52;;;;;;;8.15;3.13;;;13.10;78.60;;;;;;5031322;28;20079;-70
2023/05/05 01:49:18;;;;;;;5.63;2.40;;;13.00;79.00;;;;;;5031141;28;20029;-70
2023/05/05 01:51:46;;;;;;;11.15;3.13;;;12.90;79.20;;;;;;5030857;28;20597;-70
2023/05/05 01:54:14;;;;;;;7.43;3.40;;;13.00;79.40;;;;;;5030502;28;20037;-70
2023/05/05 01:56:40;;;;;;;8.73;3.03;;;12.90;80.20;;;;;;5030496;28;20056;-71
2023/05/05 01:59:07;;;;;;;9.50;3.50;;;12.90;80.40;;;;;;5012965;28;20022;-71
2023/05/05 02:01:36;;;;;;;13.75;3.28;;;12.90;80.20;;;;;;5031313;28;20036;-70
2023/05/05 02:04:03;;;;;;;8.60;3.33;;;12.90;80.40;;;;;;5032139;28;20424;-71
2023/05/05 02:06:31;;;;;;;6.97;3.65;;;12.90;80.60;;;;;;5034584;28;20106;-72
2023/05/05 02:08:57;;;;;;;9.77;3.30;;;12.90;80.80;;;;;;5034553;28;20094;-71
2023/05/05 02:11:25;;;;;;;13.43;3.50;;;12.90;80.80;;;;;;5034392;28;20801;-72
2023/05/05 02:13:53;;;;;;;7.00;3.22;;;12.90;81.20;;;;;;5034833;28;20057;-70
2023/05/05 02:16:20;;;;;;;12.57;3.22;;;12.80;81.50;;;;;;5034536;28;20486;-70
2023/05/05 02:18:47;;;;;;;5.22;2.63;;;12.80;82.00;;;;;;5017521;28;20033;-70
2023/05/05 02:21:16;;;;;;;11.32;3.10;;;12.80;82.00;;;;;;5025147;28;20041;-70
2023/05/05 02:23:44;;;;;;;10.32;3.55;;;12.80;82.50;;;;;;5014845;28;20026;-70
2023/05/05 02:26:13;;;;;;;4.40;2.63;;;12.70;82.60;;;;;;5014788;28;20116;-70
2023/05/05 02:28:56;;;;;;;15.07;2.72;;;12.70;82.80;;;;;;5015482;28;20026;-70
2023/05/05 02:31:24;;;;;;;12.55;2.90;;;12.70;83.40;;;;;;5014675;28;20502;-72
2023/05/05 02:33:52;;;;;;;9.10;3.28;;;12.70;83.90;;;;;;5014717;28;20041;-71
2023/05/05 02:36:26;;;;;;;6.93;3.53;;;12.60;84.20;;;;;;5014900;28;20034;-71
2023/05/05 02:39:00;;;;;;;7.53;2.90;;;12.60;84.30;;;;;;4997284;28;20041;-71
2023/05/05 02:41:27;;;;;;;7.15;3.33;;;12.60;84.70;;;;;;4997156;28;20089;-70
2023/05/05 02:43:56;;;;;;;7.22;3.30;;;12.50;85.40;;;;;;5014996;28;20057;-70
2023/05/05 02:46:21;;;;;;;8.68;3.40;;;12.50;85.90;;;;;;5014323;28;20033;-72
2023/05/05 02:48:47;;;;;;;9.65;3.03;;;12.50;86.00;;;;;;5014412;28;20176;-72
2023/05/05 02:51:13;;;;;;;10.40;3.28;;;12.50;86.40;;;;;;5014384;28;20038;-70
2023/05/05 02:53:38;;;;;;;10.05;3.10;;;12.40;86.90;;;;;;5014347;28;20049;-71
2023/05/05 02:56:30;;;;;;;9.32;3.13;;;12.50;86.70;;;;;;5014149;28;20026;-72
2023/05/05 02:59:13;;;;;;;6.72;3.00;;;12.50;86.90;;;;;;5014657;28;20356;-71
2023/05/05 03:01:49;;;;;;;8.63;2.88;;;12.50;87.40;;;;;;5033957;28;20140;-71
2023/05/05 03:04:23;;;;;;;8.48;3.05;;;12.50;87.00;;;;;;5016259;28;20125;-72
2023/05/05 03:06:52;;;;;;;10.30;3.05;;;12.50;87.00;;;;;;5016189;28;20084;-71
2023/05/05 03:09:31;;;;;;;8.13;3.17;;;12.50;87.50;;;;;;5033621;28;20474;-71
2023/05/05 03:12:03;;;;;;;8.05;3.08;;;12.40;88.40;;;;;;5033408;28;20302;-71
2023/05/05 03:14:35;;;;;;;10.73;3.42;;;12.40;88.60;;;;;;5033280;28;20423;-70
2023/05/05 03:17:01;;;;;;;11.43;3.22;;;12.30;88.90;;;;;;5033340;28;20017;-70
2023/05/05 03:19:28;;;;;;;10.45;3.47;;;12.40;89.00;;;;;;5033489;28;20382;-71
2023/05/05 03:21:54;;;;;;;5.18;3.03;;;12.40;88.60;;;;;;5033587;28;20052;-71
2023/05/05 03:24:20;;;;;;;7.60;3.65;;;12.40;89.50;;;;;;5033231;28;20121;-73
2023/05/05 03:26:47;;;;;;;8.05;3.85;;;12.50;89.20;;;;;;5033238;28;20426;-70
2023/05/05 03:29:14;;;;;;;12.60;3.70;;;12.40;89.30;;;;;;5032961;28;20064;-70
2023/05/05 03:31:40;;;;;;;6.70;3.10;;;12.30;89.80;;;;;;5033716;28;20394;-71
2023/05/05 03:34:07;;;;;;;8.05;3.20;;;12.30;90.00;;;;;;5033053;28;20034;-72
2023/05/05 03:36:34;;;;;;;10.30;3.90;;;12.30;90.10;;;;;;5033085;28;20371;-71
2023/05/05 03:39:00;;;;;;;4.63;3.05;;;12.30;90.10;;;;;;5033124;28;20056;-70
2023/05/05 03:41:26;;;;;;;7.80;3.55;;;12.30;90.30;;;;;;5032796;28;20499;-71
2023/05/05 03:43:52;;;;;;;10.73;3.60;;;12.30;90.50;;;;;;5033379;28;20029;-70
2023/05/05 03:46:18;;;;;;;11.35;3.70;;;12.20;90.60;;;;;;5015275;28;20365;-71
2023/05/05 03:48:43;;;;;;;8.18;3.13;;;12.20;90.40;;;;;;5015343;28;20058;-71
2023/05/05 03:51:09;;;;;;;11.43;3.40;;;12.20;90.70;;;;;;5032759;28;20071;-71
2023/05/05 03:53:35;;;;;;;7.70;3.95;;;12.20;90.90;;;;;;5032665;28;20368;-71
2023/05/05 03:56:00;;;;;;;11.75;3.63;;;12.00;91.10;;;;;;5015467;28;20029;-71
2023/05/05 03:58:26;;;;;;;9.57;4.18;;;12.00;91.30;;;;;;5032947;28;20025;-71
2023/05/05 04:00:52;;;;;;;10.70;3.63;;;12.00;91.30;;;;;;5032192;28;20037;-70
2023/05/05 04:03:17;;;;;;;10.30;4.25;;;11.90;91.60;;;;;;5032044;28;20034;-72
2023/05/05 04:05:43;;;;;;;7.78;3.75;;;11.90;91.80;;;;;;5032732;28;20029;-71
2023/05/05 04:08:09;;;;;;;10.68;3.58;;;11.90;91.90;;;;;;5032311;28;20402;-71
2023/05/05 04:10:35;;;;;;;9.90;3.65;;;11.80;92.00;;;;;;5033042;28;20105;-71
2023/05/05 04:13:00;;;;;;;8.13;3.63;;;11.80;91.90;;;;;;5014806;28;20030;-71
2023/05/05 04:15:26;;;;;;;5.95;3.30;;;11.90;91.80;;;;;;5014509;28;20459;-71
2023/05/05 04:17:51;;;;;;;9.75;4.35;;;11.90;91.90;;;;;;5032374;28;20041;-70
2023/05/05 04:20:17;;;;;;;9.93;3.17;;;11.90;91.90;;;;;;5032347;28;20173;-70
2023/05/05 04:22:43;;;;;;;10.77;3.67;;;11.90;92.00;;;;;;5032954;28;20099;-70
2023/05/05 04:25:09;;;;;;;9.63;3.72;;;12.00;91.90;;;;;;5014741;28;20112;-70
2023/05/05 04:27:35;;;;;;;7.20;3.30;;;12.00;91.80;;;;;;5032176;28;20117;-71
2023/05/05 04:30:01;;;;;;;9.02;4.00;;;12.00;91.90;;;;;;5031711;28;20120;-72
2023/05/05 04:32:27;;;;;;;10.32;4.25;;;12.10;91.90;;;;;;5032121;28;20100;-71
2023/05/05 04:34:53;;;;;;;9.82;3.80;;;12.10;91.90;;;;;;5032461;28;20036;-72
2023/05/05 04:37:19;;;;;;;17.58;4.07;;;12.10;92.00;;;;;;5032025;28;20108;-71
2023/05/05 04:39:45;;;;;;;8.25;3.53;;;12.00;92.30;;;;;;5031861;28;20112;-71
2023/05/05 04:42:10;;;;;;;9.85;4.05;;;11.90;92.30;;;;;;5031727;28;20455;-72
2023/05/05 04:44:36;;;;;;;13.43;4.47;;;11.90;92.80;;;;;;5031724;28;20044;-72
2023/05/05 04:47:03;;;;;;;9.85;4.10;;;11.80;92.80;;;;;;5014628;28;20025;-71
2023/05/05 04:49:29;;;;;;;11.85;3.95;;;11.80;93.10;;;;;;5031998;28;20121;-73
2023/05/05 04:51:55;;;;;;;14.35;3.90;;;11.80;93.10;;;;;;5031807;28;20040;-72
2023/05/05 04:54:21;;;;;;;17.40;4.28;;;11.80;93.20;;;;;;5031553;28;20037;-72
2023/05/05 04:56:47;;;;;;;6.25;3.72;;;11.80;93.20;;;;;;5014051;28;20052;-71
2023/05/05 04:59:13;;;;;;;13.20;4.38;;;11.90;93.20;;;;;;5031434;28;20109;-71
2023/05/05 05:01:39;;;;;;;10.32;4.43;;;12.00;93.00;;;;;;5014416;28;20044;-71
2023/05/05 05:04:06;;;;;;;14.30;4.13;;;12.00;92.90;;;;;;5031601;28;20033;-72
2023/05/05 05:06:31;;;;;;;8.75;3.38;;;12.10;92.90;;;;;;5013835;28;20037;-71
2023/05/05 05:08:57;;;;;;;12.50;3.60;;;12.20;92.90;;;;;;5031385;28;20451;-71
2023/05/05 05:11:23;;;;;;;10.93;4.40;;;12.20;92.90;;;;;;5031095;28;20483;-72
2023/05/05 05:13:48;;;;;;;7.53;3.42;;;12.30;92.90;;;;;;5031454;28;20038;-72
2023/05/05 05:16:14;;;;;;;14.85;4.03;;;12.40;92.80;;;;;;5031057;28;20127;-72
2023/05/05 05:18:40;;;;;;;8.35;4.07;;;12.40;92.70;;;;;;5013442;28;20101;-71
2023/05/05 05:21:06;;;;;;;15.98;4.22;;;12.50;92.70;;;;;;5030956;28;20037;-72
2023/05/05 05:23:32;;;;;;;8.63;3.15;;;12.40;92.70;;;;;;5030961;28;20359;-71
2023/05/05 05:25:57;;;;;;;8.30;4.13;;;12.50;92.60;;;;;;5014037;28;20036;-71
2023/05/05 05:28:23;;;;;;;10.50;4.32;;;12.60;92.50;;;;;;5031093;28;20022;-72
2023/05/05 05:30:50;;;;;;;11.90;4.07;;;12.70;92.30;;;;;;5030864;28;20047;-71
2023/05/05 05:33:16;;;;;;;11.98;4.10;;;12.80;92.30;;;;;;5031052;28;20040;-72
2023/05/05 05:35:42;;;;;;;12.30;3.92;;;12.80;92.30;;;;;;5030260;28;20037;-70
2023/05/05 05:38:07;;;;;;;12.38;4.43;;;13.00;92.10;;;;;;5012602;28;20249;-73
2023/05/05 05:40:33;;;;;;;13.32;3.72;;;13.00;91.90;;;;;;5031213;28;20486;-72
2023/05/05 05:42:59;;;;;;;7.45;4.00;;;13.10;91.80;;;;;;5030935;28;20067;-71
2023/05/05 05:45:24;;;;;;;18.63;5.03;;;13.10;91.70;;;;;;5030651;28;20116;-72
2023/05/05 05:47:50;;;;;;;10.15;3.90;;;13.10;91.60;;;;;;5013250;28;20354;-70
2023/05/05 05:50:16;;;;;;;9.02;4.07;;;13.20;91.50;;;;;;5030742;28;20029;-69
2023/05/05 05:52:41;;;;;;;13.07;4.20;;;13.20;91.30;;;;;;5031198;28;20025;-71
2023/05/05 05:55:08;;;;;;;9.68;3.80;;;13.30;91.20;;;;;;5030832;28;20132;-71
2023/05/05 05:57:33;;;;;;;8.70;3.88;;;13.30;91.10;;;;;;5012957;28;20107;-70
2023/05/05 05:59:59;;;;;;;8.50;3.80;;;13.20;91.00;;;;;;5030630;28;20037;-71
2023/05/05 06:02:26;;;;;;;10.15;4.68;;;13.30;91.10;;;;;;5012675;28;20025;-71
2023/05/05 06:04:51;;;;;;;11.85;4.97;;;13.40;91.30;;;;;;5030971;28;20370;-71
2023/05/05 06:07:17;;;;;;;8.82;3.95;;;13.50;91.10;;;;;;5030728;28;20030;-70
2023/05/05 06:09:43;;;;;;;11.75;4.50;;;13.60;91.10;;;;;;5013128;28;20034;-70
2023/05/05 06:12:09;;;;;;;9.95;3.95;;;13.80;90.90;;;;;;5030600;28;20095;-71
2023/05/05 06:14:35;;;;;;;8.35;4.03;;;13.80;90.60;;;;;;5030234;28;20044;-72
2023/05/05 06:17:01;;;;;;;13.32;4.38;;;13.90;90.40;;;;;;5013368;28;20359;-71
2023/05/05 06:19:26;;;;;;;11.95;4.20;;;14.00;90.20;;;;;;5030445;28;20029;-72
2023/05/05 06:21:53;;;;;;;6.97;3.67;;;14.00;89.80;;;;;;5030758;28;20038;-71
2023/05/05 06:24:18;;;;;;;12.40;4.55;;;14.00;90.00;;;;;;5030499;28;20044;-75
2023/05/05 06:26:44;;;;;;;10.60;4.65;;;14.10;89.80;;;;;;5030359;28;20361;-73
2023/05/05 06:29:09;;;;;;;12.43;4.53;;;14.00;90.00;;;;;;5029975;28;20091;-71
2023/05/05 06:31:35;;;;;;;13.85;4.25;;;14.10;90.00;;;;;;5031036;28;20034;-70
2023/05/05 06:34:01;;;;;;;12.50;4.10;;;14.10;90.00;;;;;;5030383;28;20080;-71
2023/05/05 06:36:26;;;;;;;12.85;4.40;;;14.20;90.00;;;;;;5030262;28;20034;-71
2023/05/05 06:38:52;;;;;;;12.70;4.10;;;14.20;90.00;;;;;;5030250;28;20474;-71
2023/05/05 06:41:18;;;;;;;11.00;4.57;;;14.30;90.00;;;;;;5030580;28;20780;-71
2023/05/05 06:43:44;;;;;;;7.00;3.85;;;14.30;89.90;;;;;;5031143;28;20033;-70
2023/05/05 06:46:10;;;;;;;12.60;3.90;;;14.30;89.60;;;;;;5030205;28;20034;-69
2023/05/05 06:48:35;;;;;;;16.75;4.22;;;14.30;89.60;;;;;;5030470;28;20367;-69
2023/05/05 06:51:01;;;;;;;11.82;4.50;;;14.40;89.70;;;;;;5033404;28;20044;-72
2023/05/05 06:53:27;;;;;;;12.57;4.97;;;14.30;89.30;;;;;;5034184;28;20463;-69
2023/05/05 06:55:53;;;;;;;15.38;4.57;;;14.40;89.10;;;;;;5016824;28;20383;-70
2023/05/05 06:58:20;;;;;;;9.45;4.13;;;14.50;88.90;;;;;;5033540;28;20125;-72
2023/05/05 07:00:46;;;;;;;9.80;3.80;;;14.50;88.70;;;;;;5033803;28;20025;-71
2023/05/05 07:03:12;;;;;;;9.73;4.35;;;14.60;88.80;;;;;;5034015;28;20040;-73
2023/05/05 07:05:37;;;;;;;11.18;4.60;;;14.60;88.60;;;;;;5016345;28;20133;-71
2023/05/05 07:08:03;;;;;;;9.13;4.43;;;14.70;88.70;;;;;;5018637;28;20096;-68
2023/05/05 07:10:30;;;;;;;15.20;4.97;;;14.60;88.60;;;;;;5014194;28;20076;-70
2023/05/05 07:12:56;;;;;;;9.88;4.35;;;14.70;88.70;;;;;;5014005;28;20033;-71
2023/05/05 07:15:22;;;;;;;11.98;4.43;;;14.80;88.40;;;;;;5012634;28;20033;-71
2023/05/05 07:17:48;;;;;;;21.30;5.68;;;14.60;88.40;;;;;;5014059;28;20052;-70
2023/05/05 07:20:15;;;;;;;11.23;4.20;;;14.80;89.10;;;;;;5013429;28;20485;-69
2023/05/05 07:22:41;;;;;;;16.27;4.65;;;15.10;88.60;;;;;;5013942;28;20456;-69
2023/05/05 07:25:07;;;;;;;14.82;4.95;;;15.60;88.40;;;;;;5013674;28;20033;-69
2023/05/05 07:27:34;;;;;;;15.73;4.32;;;16.10;87.40;;;;;;5013331;28;20472;-71
2023/05/05 07:30:00;;;;;;;18.37;6.37;;;16.60;86.50;;;;;;5011924;28;20049;-70
2023/05/05 07:32:25;;;;;;;18.73;4.80;;;17.10;85.90;;;;;;5013074;28;20042;-69
2023/05/05 07:34:51;;;;;;;11.85;5.30;;;17.40;84.50;;;;;;4999101;28;20526;-71
2023/05/05 07:37:17;;;;;;;9.10;3.80;;;17.80;83.40;;;;;;5013142;28;20441;-71
2023/05/05 07:39:43;;;;;;;11.35;4.95;;;18.00;82.30;;;;;;5012959;28;20364;-70
2023/05/05 07:42:09;;;;;;;11.48;4.13;;;18.30;82.20;;;;;;5013033;28;20099;-69
2023/05/05 07:44:35;;;;;;;8.85;3.95;;;18.80;81.60;;;;;;5011983;28;20096;-71
2023/05/05 07:47:01;;;;;;;19.70;4.28;;;19.00;80.60;;;;;;4997683;28;20018;-69
2023/05/05 07:49:26;;;;;;;8.05;3.97;;;18.90;79.80;;;;;;5012682;28;20034;-70
2023/05/05 07:51:53;;;;;;;9.38;4.07;;;18.60;80.50;;;;;;5013002;28;20334;-70
2023/05/05 07:54:18;;;;;;;10.55;5.15;;;18.40;80.10;;;;;;5013104;28;20034;-68
2023/05/05 07:56:44;;;;;;;10.93;4.28;;;18.20;80.20;;;;;;5012727;28;20096;-69
2023/05/05 07:59:10;;;;;;;8.45;4.10;;;17.90;80.30;;;;;;5012682;28;20040;-72
2023/05/05 08:01:37;;;;;;;14.20;4.50;;;17.60;80.90;;;;;;5012539;28;20436;-71
2023/05/05 08:04:02;;;;;;;10.48;4.28;;;17.60;81.50;;;;;;5012956;28;20030;-70
2023/05/05 08:06:30;;;;;;;7.38;4.38;;;17.70;81.50;;;;;;5012821;28;20064;-70
2023/05/05 08:08:58;;;;;;;12.15;4.95;;;17.70;81.20;;;;;;5012675;28;20046;-71
2023/05/05 08:11:24;;;;;;;;;;;17.80;81.30;;;;;;5012812;28;20067;-70
2023/05/05 08:13:49;;;;;;;8.85;4.50;;;17.80;80.90;;;;;;5012613;28;19909;-70
2023/05/05 08:16:15;;;;;;;10.95;4.72;;;18.00;81.40;;;;;;5012194;28;20526;-71
2023/05/05 08:18:50;;;;;;;11.88;4.70;;;18.10;80.90;;;;;;5012321;28;20048;-71
2023/05/05 08:21:17;;;;;;;17.75;5.60;;;18.10;80.80;;;;;;4994961;28;20041;-71
2023/05/05 08:23:42;;;;;;;10.85;4.85;;;18.10;81.10;;;;;;5012097;28;20042;-72
2023/05/05 08:26:08;;;;;;;14.48;5.40;;;18.10;80.80;;;;;;5012118;28;20129;-72
2023/05/05 08:28:37;;;;;;;15.95;5.03;;;18.00;80.80;;;;;;4995113;28;20037;-70
2023/05/05 08:34:25;;;;;;;13.38;5.40;;;18.00;80.70;;;;;;5024980;28;20095;-71
2023/05/05 08:36:51;;;;;;;15.90;5.82;;;18.00;80.70;;;;;;5031477;28;20029;-72
2023/05/05 08:39:17;;;;;;;12.20;5.13;;;18.00;80.70;;;;;;5031572;28;20416;-70
2023/05/05 08:41:42;;;;;;;11.82;5.43;;;18.00;80.70;;;;;;5031380;28;20087;-70
2023/05/05 08:44:09;;;;;;;11.43;5.25;;;18.00;80.60;;;;;;5031248;28;20364;-72
2023/05/05 08:46:35;;;;;;;11.80;5.00;;;18.00;80.80;;;;;;5014171;28;20079;-71
2023/05/05 08:49:03;;;;;;;13.82;5.65;;;18.00;80.70;;;;;;5013937;28;20486;-71
2023/05/05 08:51:36;;;;;;;16.92;5.85;;;17.80;80.80;;;;;;5031627;28;20088;-71
2023/05/05 08:54:05;;;;;;;13.73;5.32;;;17.80;81.00;;;;;;5031377;28;20029;-70
2023/05/05 08:56:33;;;;;;;19.70;5.53;;;17.80;80.90;;;;;;5013735;28;20037;-71
2023/05/05 08:59:00;;;;;;;9.90;4.47;;;17.70;80.90;;;;;;5014069;28;20403;-72
2023/05/05 09:01:27;;;;;;;13.57;5.45;;;17.70;81.20;;;;;;5031248;28;20113;-71
2023/05/05 09:03:53;;;;;;;9.52;4.88;;;17.80;81.30;;;;;;5031031;28;20081;-70
2023/05/05 09:06:21;;;;;;;8.85;4.72;;;17.90;81.30;;;;;;5031230;28;20065;-71
2023/05/05 09:08:48;;;;;;;8.93;4.80;;;18.10;81.00;;;;;;5013460;28;20034;-73
2023/05/05 09:11:13;;;;;;;12.00;5.60;;;18.10;80.50;;;;;;5030579;28;20018;-71
2023/05/05 09:13:40;;;;;;;10.65;5.20;;;18.20;80.90;;;;;;5031439;28;20114;-72
2023/05/05 09:16:06;;;;;;;9.77;5.03;;;18.30;80.10;;;;;;5013414;28;20033;-72
2023/05/05 09:18:32;;;;;;;13.48;5.60;;;18.40;80.30;;;;;;5012940;28;20029;-71
2023/05/05 09:20:58;;;;;;;10.10;4.97;;;18.50;79.80;;;;;;5030890;28;20364;-72
2023/05/05 09:23:23;;;;;;;11.43;5.93;;;18.50;79.20;;;;;;5030586;28;20527;-72
2023/05/05 09:26:03;;;;;;;15.07;5.18;;;18.50;79.30;;;;;;5031124;28;20412;-71
2023/05/05 09:28:29;;;;;;;22.27;6.80;;;18.50;79.40;;;;;;5030766;28;20107;-71
2023/05/05 09:30:55;;;;;;;12.57;5.55;;;18.60;79.50;;;;;;5030175;28;20136;-73
2023/05/05 09:33:39;;;;;;;14.23;7.88;;;18.70;79.20;;;;;;5027244;28;20054;-72
2023/05/05 09:36:05;;;;;;;10.77;5.38;;;19.00;79.70;;;;;;5010924;28;20401;-70
2023/05/05 09:38:30;;;;;;;13.90;5.53;;;19.40;79.20;;;;;;5010917;28;20077;-71
2023/05/05 09:40:56;;;;;;;13.02;5.47;;;20.00;78.00;;;;;;5011013;28;20084;-71
2023/05/05 09:43:22;;;;;;;12.43;5.75;;;20.50;77.10;;;;;;4993230;28;20057;-71
2023/05/05 09:45:49;;;;;;;12.32;5.15;;;21.00;75.30;;;;;;5010620;28;20034;-71
2023/05/05 09:48:28;;;;;;;13.52;5.53;;;21.30;74.70;;;;;;5010815;28;20034;-72
2023/05/05 09:50:55;;;;;;;10.93;5.68;;;21.60;74.80;;;;;;5010881;28;20038;-70
2023/05/05 09:53:21;;;;;;;36.67;21.25;;;21.80;73.20;;;;;;5008638;28;20084;-69
2023/05/05 09:55:57;;;;;;;24.55;14.60;;;22.10;72.40;;;;;;4991495;28;20030;-72
2023/05/05 09:58:25;;;;;;;9.68;5.78;;;22.20;72.40;;;;;;4989732;28;20364;-71
2023/05/05 10:00:51;;;;;;;;;;;22.70;71.00;;;;;;4994449;28;20289;-72
2023/05/05 10:03:17;;;;;;;9.75;5.35;;;22.70;70.30;;;;;;4989985;28;19941;-71
2023/05/05 10:05:49;;;;;;;22.42;7.22;;;22.70;70.30;;;;;;4990814;28;20030;-72
2023/05/05 10:08:15;;;;;;;12.10;7.05;;;22.60;69.30;;;;;;4990684;28;20027;-72
2023/05/05 10:10:59;;;;;;;10.65;6.05;;;22.90;69.20;;;;;;4991265;28;20076;-72
2023/05/05 10:13:25;;;;;;;10.13;4.82;;;23.00;69.00;;;;;;4990612;28;20031;-72
2023/05/05 10:15:53;;;;;;;13.95;4.70;;;22.90;68.80;;;;;;4990708;28;20053;-71
2023/05/05 10:18:24;;;;;;;12.85;5.25;;;22.60;68.80;;;;;;4990652;28;20146;-71
2023/05/05 10:20:56;;;;;;;12.77;5.00;;;22.20;69.30;;;;;;4990530;28;20133;-72
2023/05/05 10:23:23;;;;;;;13.38;5.15;;;22.10;69.40;;;;;;4990695;28;20100;-73
2023/05/05 10:25:59;;;;;;;12.57;5.30;;;22.10;69.90;;;;;;4993967;28;20058;-72
2023/05/05 10:28:40;;;;;;;7.68;4.65;;;21.90;69.70;;;;;;4994689;28;20045;-72
2023/05/05 10:31:12;;;;;;;9.50;5.18;;;21.70;70.10;;;;;;4994459;28;20042;-72
2023/05/05 10:33:52;;;;;;;8.93;4.85;;;21.50;70.70;;;;;;4994397;28;20093;-72
2023/05/05 10:36:19;;;;;;;8.95;4.80;;;21.30;70.00;;;;;;4998278;28;20119;-72
2023/05/05 10:38:45;;;;;;;10.38;4.78;;;21.10;70.00;;;;;;4999234;28;20031;-71
2023/05/05 10:41:13;;;;;;;8.75;4.65;;;21.10;70.80;;;;;;4995901;28;20033;-71
2023/05/05 10:43:39;;;;;;;8.40;4.88;;;21.00;71.10;;;;;;5015039;28;20172;-71
2023/05/05 10:46:06;;;;;;;7.38;4.70;;;21.20;71.60;;;;;;5014720;28;20030;-70
2023/05/05 10:48:50;;;;;;;13.90;5.18;;;21.00;71.40;;;;;;5014407;28;20088;-70
2023/05/05 10:51:36;;;;;;;11.55;4.88;;;21.30;71.50;;;;;;5014147;28;20124;-71
2023/05/05 10:54:45;;;;;;;14.32;5.75;;;21.40;71.40;;;;;;5013863;28;20030;-72
2023/05/05 10:57:13;;;;;;;11.30;5.50;;;21.40;71.00;;;;;;4919168;29;20035;-71
2023/05/05 10:59:40;;;;;;;10.10;5.60;;;21.40;71.00;;;;;;4931068;29;20043;-72
2023/05/05 11:02:25;;;;;;;13.60;5.38;;;21.40;71.40;;;;;;4954309;28;20476;-71
2023/05/05 11:05:15;;;;;;;10.27;5.75;;;21.40;71.40;;;;;;5016136;28;20268;-71
2023/05/05 11:07:42;;;;;;;7.50;4.80;;;21.50;71.70;;;;;;5014172;28;20037;-71
2023/05/05 11:10:10;;;;;;;10.60;5.70;;;21.60;71.80;;;;;;4993296;28;20034;-70
2023/05/05 11:13:01;;;;;;;13.65;5.32;;;21.60;72.20;;;;;;4996796;28;20034;-71
2023/05/05 11:15:29;;;;;;;10.02;5.82;;;21.60;71.70;;;;;;5002841;28;20038;-71
2023/05/05 11:18:02;;;;;;;8.73;5.82;;;21.60;71.80;;;;;;5013332;28;20030;-70
2023/05/05 11:20:34;;;;;;;10.50;5.55;;;21.60;71.90;;;;;;5013526;28;20034;-71
2023/05/05 11:23:03;;;;;;;13.32;6.25;;;21.60;71.70;;;;;;5013707;28;20030;-70
2023/05/05 11:25:35;;;;;;;8.20;5.63;;;21.50;71.90;;;;;;5013597;28;20030;-71
2023/05/05 11:28:14;;;;;;;9.43;5.57;;;21.30;72.10;;;;;;5013227;28;20038;-70
2023/05/05 11:30:55;;;;;;;8.82;5.55;;;21.20;72.40;;;;;;5013037;28;20046;-70
2023/05/05 11:33:35;;;;;;;11.30;5.93;;;21.00;72.60;;;;;;4996063;28;20479;-69
2023/05/05 11:36:03;;;;;;;9.98;5.55;;;20.90;73.00;;;;;;5010934;28;20037;-70
2023/05/05 11:38:47;;;;;;;8.95;5.80;;;20.80;73.60;;;;;;4995807;28;20038;-69
2023/05/05 11:41:24;;;;;;;12.25;6.72;;;20.80;73.80;;;;;;5012225;28;20029;-73
2023/05/05 11:44:06;;;;;;;17.08;7.07;;;20.70;74.20;;;;;;4996198;28;20018;-72
2023/05/05 11:46:32;;;;;;;17.25;6.45;;;20.70;74.60;;;;;;4995636;28;20371;-73
2023/05/05 11:48:58;;;;;;;27.08;12.63;;;20.70;76.50;;;;;;4995631;28;20122;-72
2023/05/05 11:51:24;;;;;;;10.23;6.40;;;20.60;78.50;;;;;;5012732;28;20423;-71
2023/05/05 11:53:49;;;;;;;12.55;7.57;;;20.60;79.80;;;;;;5012657;28;20384;-71
2023/05/05 11:56:17;;;;;;;12.65;6.97;;;20.60;79.70;;;;;;4995689;28;20022;-71
2023/05/05 11:58:44;;;;;;;;;;;20.60;80.50;;;;;;5013598;28;20105;-73
2023/05/05 12:01:10;;;;;;;11.25;6.82;;;20.60;82.70;;;;;;5012624;28;19917;-70
2023/05/05 12:03:39;;;;;;;12.25;6.65;;;20.80;83.60;;;;;;4995191;28;20038;-71
2023/05/05 12:06:06;;;;;;;15.55;6.95;;;20.90;83.90;;;;;;5012618;28;20423;-69
2023/05/05 12:08:38;;;;;;;11.98;6.93;;;21.00;84.40;;;;;;5012582;28;20036;-70
2023/05/05 12:11:06;;;;;;;15.35;6.70;;;21.10;85.40;;;;;;5012465;28;20432;-71
2023/05/05 12:13:32;;;;;;;;;;;21.30;82.00;;;;;;5013731;28;20018;-73
2023/05/05 12:16:12;;;;;;;10.90;6.20;;;21.30;81.20;;;;;;5011230;28;19913;-72
2023/05/05 12:18:38;;;;;;;13.40;6.20;;;21.40;81.70;;;;;;5012423;28;20410;-71
2023/05/05 12:21:19;;;;;;;10.00;6.07;;;21.50;81.10;;;;;;5003915;28;20038;-72
2023/05/05 12:23:45;;;;;;;12.98;6.45;;;21.60;78.30;;;;;;4992390;28;20041;-70
2023/05/05 12:26:25;;;;;;;14.57;6.65;;;21.60;77.10;;;;;;4992353;28;20026;-71
2023/05/05 12:28:50;;;;;;;11.00;5.22;;;21.80;78.60;;;;;;4991710;28;20105;-71
2023/05/05 12:31:16;;;;;;;13.68;5.55;;;21.80;77.10;;;;;;4992616;28;20434;-71
2023/05/05 12:33:42;;;;;;;14.13;8.07;;;21.90;76.40;;;;;;4992296;28;20416;-70
2023/05/05 12:36:08;;;;;;;18.00;7.00;;;21.90;76.70;;;;;;4992254;28;20473;-71
2023/05/05 12:38:36;;;;;;;13.20;5.90;;;21.80;76.50;;;;;;4992358;28;20054;-70
2023/05/05 12:41:02;;;;;;;9.90;6.20;;;21.80;77.10;;;;;;4992597;28;20022;-70
2023/05/05 12:43:28;;;;;;;13.23;6.75;;;21.90;76.70;;;;;;4992199;28;20026;-70
2023/05/05 12:46:03;;;;;;;10.05;6.38;;;21.90;76.00;;;;;;4992002;28;20026;-70
2023/05/05 12:48:29;;;;;;;13.93;7.22;;;21.90;76.00;;;;;;4991768;28;20037;-70
2023/05/05 12:51:09;;;;;;;10.13;6.38;;;21.90;75.70;;;;;;4992265;28;20417;-71
2023/05/05 12:53:35;;;;;;;10.80;6.35;;;21.90;76.00;;;;;;4992250;28;20129;-70